Time;durP1;ratioP1;P1;durP2;ratioP2;P2;SDS_P1;SDS_P2;PMS_P1;PMS_P2;Temp;Humidity;BMP_temperature;BMP_pressure;BME280_temperature;BME280_humidity;BME280_pressure;Samples;Min_cycle;Max_cycle;Signal;HPM_P1;HPM_P2
2022/10/05 00:00:53;;;;;;;4.53;2.83;;;7.80;99.90;;;;;;5033255;28;20190;-87
2022/10/05 00:03:21;;;;;;;3.07;2.37;;;7.70;99.90;;;;;;5033786;28;20262;-85
2022/10/05 00:05:47;;;;;;;4.13;2.53;;;7.70;99.90;;;;;;5033427;28;20180;-88
2022/10/05 00:08:24;;;;;;;3.40;2.00;;;7.70;99.90;;;;;;5035019;28;20184;-85
2022/10/05 00:10:50;;;;;;;4.87;3.47;;;7.60;99.90;;;;;;5018231;28;20177;-85
2022/10/05 00:13:20;;;;;;;4.63;2.30;;;7.60;99.90;;;;;;5017625;28;20181;-85
2022/10/05 00:15:47;;;;;;;3.77;2.27;;;7.60;99.90;;;;;;5017925;28;20242;-86
2022/10/05 00:18:18;;;;;;;3.77;2.40;;;7.50;99.90;;;;;;5028499;28;20170;-86
2022/10/05 00:20:45;;;;;;;5.73;2.53;;;7.50;99.90;;;;;;5037399;28;20184;-85
2022/10/05 00:23:18;;;;;;;4.63;2.23;;;7.50;99.90;;;;;;5037027;28;20192;-85
2022/10/05 00:25:45;;;;;;;4.27;2.40;;;7.50;99.90;;;;;;5036092;28;20203;-84
2022/10/05 00:28:36;;;;;;;7.13;2.77;;;7.40;99.90;;;;;;5022986;28;20177;-85
2022/10/05 00:31:09;;;;;;;3.57;1.77;;;7.50;99.90;;;;;;5012584;28;20193;-85
2022/10/05 00:33:35;;;;;;;6.30;2.53;;;7.40;99.90;;;;;;5029295;28;20216;-85
2022/10/05 00:36:00;;;;;;;4.20;2.67;;;7.40;99.90;;;;;;5019433;28;20177;-88
2022/10/05 00:38:27;;;;;;;7.23;2.87;;;7.40;99.90;;;;;;5037341;28;20181;-86
2022/10/05 00:41:25;;;;;;;3.20;2.33;;;7.40;99.90;;;;;;5011518;28;20186;-86
2022/10/05 00:44:17;;;;;;;3.73;2.30;;;7.40;99.90;;;;;;5013779;28;20197;-85
2022/10/05 00:47:06;;;;;;;2.93;2.17;;;7.40;99.90;;;;;;5013625;28;20165;-86
2022/10/05 00:49:47;;;;;;;9.17;2.47;;;7.40;99.90;;;;;;5013487;28;20249;-86
2022/10/05 00:52:19;;;;;;;4.77;2.20;;;7.40;99.90;;;;;;5012845;28;20173;-85
2022/10/05 00:54:54;;;;;;;2.90;2.53;;;7.40;99.90;;;;;;5013178;28;20252;-85
2022/10/05 00:57:41;;;;;;;7.43;3.10;;;7.40;99.90;;;;;;5015867;28;20252;-85
2022/10/05 01:00:11;;;;;;;3.13;2.40;;;7.40;99.90;;;;;;5016898;28;20165;-85
2022/10/05 01:02:43;;;;;;;4.87;2.47;;;7.40;99.90;;;;;;5015863;28;20220;-85
2022/10/05 01:05:24;;;;;;;4.47;2.87;;;7.40;99.90;;;;;;5016623;28;20182;-85
2022/10/05 01:08:02;;;;;;;6.50;3.77;;;7.40;99.90;;;;;;5015750;28;20188;-85
2022/10/05 01:10:44;;;;;;;3.37;3.07;;;7.50;99.90;;;;;;5015757;28;20194;-85
2022/10/05 01:13:28;;;;;;;5.63;2.93;;;7.40;99.90;;;;;;5015114;28;20185;-85
2022/10/05 01:16:06;;;;;;;6.50;3.47;;;7.40;99.90;;;;;;5016975;28;20191;-85
2022/10/05 01:18:50;;;;;;;5.67;3.40;;;7.30;99.90;;;;;;5015545;28;20512;-85
2022/10/05 01:21:21;;;;;;;9.23;3.43;;;7.30;99.90;;;;;;5015099;28;20235;-85
2022/10/05 01:24:20;;;;;;;7.00;2.80;;;7.30;99.90;;;;;;5015771;28;20213;-85
2022/10/05 01:27:14;;;;;;;10.37;2.70;;;7.30;99.90;;;;;;5016991;28;20173;-85
2022/10/05 01:29:48;;;;;;;2.83;2.63;;;7.20;99.90;;;;;;5016701;28;20189;-85
2022/10/05 01:32:20;;;;;;;6.37;3.03;;;7.30;99.90;;;;;;5014446;28;20243;-85
2022/10/05 01:35:06;;;;;;;4.60;2.53;;;7.30;99.90;;;;;;5015318;28;20189;-86
2022/10/05 01:37:32;;;;;;;2.40;1.93;;;7.30;99.90;;;;;;5015084;28;20713;-86
2022/10/05 01:40:16;;;;;;;3.60;2.43;;;7.30;99.90;;;;;;5016079;28;20268;-86
2022/10/05 01:42:53;;;;;;;2.63;1.90;;;7.30;99.90;;;;;;5016372;28;20287;-86
2022/10/05 01:45:24;;;;;;;5.17;1.83;;;7.30;99.90;;;;;;5015910;28;20165;-86
2022/10/05 01:47:57;;;;;;;2.43;2.23;;;7.30;99.90;;;;;;5014695;28;20181;-85
2022/10/05 01:50:58;;;;;;;5.37;3.33;;;7.30;99.90;;;;;;5015628;28;20607;-85
2022/10/05 01:53:50;;;;;;;3.80;2.67;;;7.30;99.90;;;;;;5014529;28;20331;-85
2022/10/05 01:56:28;;;;;;;8.10;3.10;;;7.30;99.90;;;;;;5014424;28;20185;-86
2022/10/05 01:59:17;;;;;;;3.73;2.73;;;7.30;99.90;;;;;;5016046;28;20170;-85
2022/10/05 02:02:06;;;;;;;2.73;1.97;;;7.30;99.90;;;;;;5014839;28;20264;-85
2022/10/05 02:04:48;;;;;;;3.90;2.57;;;7.30;99.90;;;;;;5016951;28;20190;-85
2022/10/05 02:07:29;;;;;;;2.57;2.37;;;7.30;99.90;;;;;;5015926;28;20173;-85
2022/10/05 02:10:04;;;;;;;6.37;2.40;;;7.30;99.90;;;;;;5015714;28;20168;-85
2022/10/05 02:12:35;;;;;;;7.10;2.90;;;7.30;99.90;;;;;;5014586;28;20184;-85
2022/10/05 02:15:11;;;;;;;2.77;2.43;;;7.20;99.90;;;;;;5014418;28;20272;-85
2022/10/05 02:17:49;;;;;;;5.00;2.80;;;7.20;99.90;;;;;;5015828;28;20158;-85
2022/10/05 02:20:24;;;;;;;3.37;2.63;;;7.20;99.90;;;;;;5014223;28;20257;-85
2022/10/05 02:22:53;;;;;;;4.43;2.50;;;7.30;99.90;;;;;;5014553;28;20295;-86
2022/10/05 02:25:27;;;;;;;2.30;2.10;;;7.20;99.90;;;;;;5013813;28;20548;-86
2022/10/05 02:28:05;;;;;;;5.37;3.40;;;7.20;99.90;;;;;;5014304;28;20602;-85
2022/10/05 02:30:36;;;;;;;2.60;2.40;;;7.20;99.90;;;;;;5013810;28;20215;-86
2022/10/05 02:33:20;;;;;;;3.20;2.47;;;7.20;99.90;;;;;;5015600;28;20228;-85
2022/10/05 02:35:46;;;;;;;3.17;2.43;;;7.20;99.90;;;;;;5015600;28;20165;-85
2022/10/05 02:38:33;;;;;;;5.13;2.97;;;7.20;99.90;;;;;;5014908;28;20184;-85
2022/10/05 02:41:20;;;;;;;4.33;3.50;;;7.20;99.90;;;;;;5015299;28;20174;-86
2022/10/05 02:44:03;;;;;;;3.57;2.47;;;7.20;99.90;;;;;;5015150;28;20705;-86
2022/10/05 02:46:35;;;;;;;4.03;2.83;;;7.30;99.90;;;;;;5013738;28;20283;-86
2022/10/05 02:49:19;;;;;;;3.00;2.00;;;7.30;99.90;;;;;;5013929;28;20511;-86
2022/10/05 02:52:05;;;;;;;6.27;2.30;;;7.30;99.90;;;;;;5013754;28;20219;-85
2022/10/05 02:54:44;;;;;;;4.23;2.83;;;7.30;99.90;;;;;;5013568;28;20185;-86
2022/10/05 02:57:31;;;;;;;5.10;2.63;;;7.30;99.90;;;;;;5013449;28;20264;-89
2022/10/05 03:00:08;;;;;;;3.43;2.83;;;7.30;99.90;;;;;;5014186;28;20661;-85
2022/10/05 03:02:42;;;;;;;3.80;2.53;;;7.30;99.90;;;;;;5016037;28;20204;-86
2022/10/05 03:05:19;;;;;;;2.77;2.43;;;7.30;99.90;;;;;;5016821;28;20184;-85
2022/10/05 03:07:59;;;;;;;3.33;2.73;;;7.30;99.90;;;;;;5014154;28;20646;-84
2022/10/05 03:10:57;;;;;;;4.67;3.27;;;7.30;99.90;;;;;;5014861;28;20180;-86
2022/10/05 03:13:40;;;;;;;4.03;3.03;;;7.30;99.90;;;;;;5014426;28;20165;-85
2022/10/05 03:16:27;;;;;;;5.50;3.13;;;7.30;99.90;;;;;;5015302;28;20173;-85
2022/10/05 03:19:17;;;;;;;4.93;2.83;;;7.30;99.90;;;;;;5015434;28;20219;-85
2022/10/05 03:22:14;;;;;;;4.20;2.83;;;7.30;99.90;;;;;;5016007;28;20165;-85
2022/10/05 03:24:46;;;;;;;3.60;3.07;;;7.30;99.90;;;;;;5014274;28;20209;-85
2022/10/05 03:27:33;;;;;;;3.30;2.53;;;7.30;99.90;;;;;;5013010;28;20173;-85
2022/10/05 03:29:59;;;;;;;6.73;3.17;;;7.30;99.90;;;;;;5013120;28;20181;-85
2022/10/05 03:32:53;;;;;;;9.47;3.60;;;7.30;99.90;;;;;;5012060;28;20290;-86
2022/10/05 03:35:29;;;;;;;3.67;2.50;;;7.30;99.90;;;;;;5028586;28;20208;-87
2022/10/05 03:38:06;;;;;;;9.07;3.93;;;7.30;99.90;;;;;;5023011;28;20173;-85
2022/10/05 03:40:35;;;;;;;3.13;2.47;;;7.30;99.90;;;;;;5034197;28;20266;-87
2022/10/05 03:43:21;;;;;;;3.73;3.27;;;7.40;99.90;;;;;;5027362;28;20209;-86
2022/10/05 03:46:02;;;;;;;16.77;3.70;;;7.40;99.90;;;;;;5033010;28;20201;-87
2022/10/05 03:48:48;;;;;;;4.03;3.07;;;7.40;99.90;;;;;;5021647;28;20186;-88
2022/10/05 03:51:31;;;;;;;6.90;3.03;;;7.50;99.90;;;;;;5027521;28;20177;-86
2022/10/05 03:54:05;;;;;;;8.43;3.43;;;7.50;99.90;;;;;;5020456;28;20227;-86
2022/10/05 03:57:02;;;;;;;3.47;2.77;;;7.60;99.90;;;;;;5013714;28;20201;-85
2022/10/05 03:59:33;;;;;;;4.23;2.70;;;7.60;99.90;;;;;;5027928;28;20196;-85
2022/10/05 04:02:11;;;;;;;7.60;3.90;;;7.60;99.90;;;;;;5032191;28;20188;-86
2022/10/05 04:04:47;;;;;;;7.77;3.40;;;7.70;99.90;;;;;;5033072;28;20218;-86
2022/10/05 04:07:31;;;;;;;7.70;3.43;;;7.60;99.90;;;;;;5033811;28;20164;-86
2022/10/05 04:09:59;;;;;;;6.60;3.40;;;7.60;99.90;;;;;;5033536;28;20165;-86
2022/10/05 04:12:32;;;;;;;6.43;3.10;;;7.60;99.90;;;;;;5033052;28;20231;-86
2022/10/05 04:15:26;;;;;;;7.47;3.20;;;7.60;99.90;;;;;;5032179;28;20327;-86
2022/10/05 04:18:02;;;;;;;5.40;3.03;;;7.60;99.90;;;;;;5032057;28;20186;-86
2022/10/05 04:20:40;;;;;;;4.87;2.93;;;7.60;99.90;;;;;;5033215;28;20191;-86
2022/10/05 04:23:09;;;;;;;2.20;2.00;;;7.60;99.90;;;;;;5033338;28;20290;-86
2022/10/05 04:26:07;;;;;;;5.17;2.83;;;7.70;99.90;;;;;;5032773;28;20187;-86
2022/10/05 04:28:55;;;;;;;3.17;2.80;;;7.60;99.90;;;;;;5016985;28;20188;-86
2022/10/05 04:31:41;;;;;;;5.83;3.13;;;7.60;99.90;;;;;;5034217;28;20679;-86
2022/10/05 04:34:45;;;;;;;6.47;3.47;;;7.60;99.90;;;;;;5037740;28;20679;-86
2022/10/05 04:37:32;;;;;;;8.90;3.47;;;7.60;99.90;;;;;;5037575;28;20219;-87
2022/10/05 04:40:20;;;;;;;6.83;3.57;;;7.60;99.90;;;;;;5037408;28;20200;-86
2022/10/05 04:42:57;;;;;;;7.27;3.23;;;7.60;99.90;;;;;;5036531;28;20196;-86
2022/10/05 04:45:31;;;;;;;4.50;3.83;;;7.60;99.90;;;;;;5037109;28;20183;-86
2022/10/05 04:48:15;;;;;;;4.30;2.73;;;7.60;99.90;;;;;;5037128;28;20259;-87
2022/10/05 04:51:05;;;;;;;8.63;3.43;;;7.60;99.90;;;;;;5029401;28;20189;-86
2022/10/05 04:53:42;;;;;;;8.47;4.00;;;7.60;99.90;;;;;;5035566;28;20188;-88
2022/10/05 04:56:31;;;;;;;9.77;4.43;;;7.50;99.90;;;;;;5035742;28;20287;-87
2022/10/05 04:58:59;;;;;;;5.40;3.40;;;7.50;99.90;;;;;;5035442;28;20192;-87
2022/10/05 05:01:44;;;;;;;2.87;2.43;;;7.60;99.90;;;;;;5036912;28;20196;-87
2022/10/05 05:04:25;;;;;;;5.87;3.77;;;7.60;99.90;;;;;;5035279;28;20204;-89
2022/10/05 05:07:29;;;;;;;4.73;3.33;;;7.60;99.90;;;;;;5034779;28;20238;-88
2022/10/05 05:10:33;;;;;;;9.60;4.63;;;7.60;99.90;;;;;;5025736;28;20234;-88
2022/10/05 05:13:23;;;;;;;9.40;3.67;;;7.60;99.90;;;;;;5035235;28;20219;-87
2022/10/05 05:15:55;;;;;;;12.23;4.30;;;7.70;99.90;;;;;;5035054;28;20185;-86
2022/10/05 05:18:39;;;;;;;5.40;4.87;;;7.70;99.90;;;;;;5035546;28;20176;-87
2022/10/05 05:21:23;;;;;;;6.47;4.50;;;7.70;99.90;;;;;;5034746;28;20314;-86
2022/10/05 05:23:57;;;;;;;5.30;3.87;;;7.80;99.90;;;;;;5034573;28;20216;-87
2022/10/05 05:26:39;;;;;;;8.30;4.17;;;7.80;99.90;;;;;;5036486;28;20165;-86
2022/10/05 05:29:33;;;;;;;4.33;3.57;;;7.90;99.90;;;;;;5036426;28;20160;-86
2022/10/05 05:32:17;;;;;;;6.30;2.90;;;7.90;99.90;;;;;;5034546;28;20232;-89
2022/10/05 05:35:12;;;;;;;7.93;4.50;;;7.90;99.90;;;;;;5034370;28;20208;-90
2022/10/05 05:38:00;;;;;;;8.20;5.30;;;7.90;99.90;;;;;;5036334;28;20192;-93
2022/10/05 05:40:44;;;;;;;9.63;4.40;;;8.00;99.90;;;;;;5039934;28;20239;-95
2022/10/05 05:43:31;;;;;;;7.53;4.23;;;8.00;99.90;;;;;;5051469;28;20203;-93
2022/10/05 05:46:02;;;;;;;12.63;4.30;;;8.10;99.90;;;;;;5050761;28;20180;-90
2022/10/05 05:48:38;;;;;;;7.57;4.83;;;8.20;99.90;;;;;;5050292;28;20165;-89
2022/10/05 05:51:20;;;;;;;12.23;5.10;;;8.20;99.90;;;;;;5048651;28;20171;-89
2022/10/05 05:53:51;;;;;;;9.80;4.50;;;8.30;99.90;;;;;;5035930;28;20637;-85
2022/10/05 05:56:25;;;;;;;15.17;6.70;;;8.40;99.90;;;;;;5036361;28;20200;-85
2022/10/05 05:58:57;;;;;;;14.10;6.70;;;8.50;99.90;;;;;;5036380;28;20187;-85
2022/10/05 06:01:32;;;;;;;15.43;7.63;;;8.50;99.90;;;;;;5035929;28;20164;-85
2022/10/05 06:04:14;;;;;;;8.70;6.03;;;8.60;99.90;;;;;;5034348;28;20200;-85
2022/10/05 06:06:48;;;;;;;11.33;6.07;;;8.60;99.90;;;;;;5018149;28;20204;-85
2022/10/05 06:09:28;;;;;;;13.80;5.93;;;8.70;99.90;;;;;;5022210;28;20566;-85
2022/10/05 06:12:02;;;;;;;15.97;6.10;;;8.70;99.90;;;;;;5024987;28;20169;-85
2022/10/05 06:14:33;;;;;;;8.67;5.07;;;8.80;99.90;;;;;;5025902;28;20184;-85
2022/10/05 06:17:17;;;;;;;10.90;5.93;;;8.80;99.90;;;;;;5015871;28;20185;-85
2022/10/05 06:19:46;;;;;;;12.93;6.67;;;8.80;99.90;;;;;;5016369;28;20169;-85
2022/10/05 06:22:15;;;;;;;12.73;6.20;;;8.90;99.90;;;;;;5015766;28;20288;-85
2022/10/05 06:25:03;;;;;;;10.80;5.17;;;8.90;99.90;;;;;;5015399;28;20182;-85
2022/10/05 06:27:36;;;;;;;8.67;5.40;;;8.90;99.90;;;;;;5015705;28;20189;-85
2022/10/05 06:30:22;;;;;;;10.37;5.30;;;8.90;99.90;;;;;;5016090;28;20652;-86
2022/10/05 06:33:13;;;;;;;11.63;4.97;;;8.90;99.90;;;;;;5023645;28;20232;-85
2022/10/05 06:36:16;;;;;;;15.20;6.17;;;9.00;99.90;;;;;;5036810;28;20185;-87
2022/10/05 06:39:00;;;;;;;8.07;5.30;;;9.00;99.90;;;;;;5059344;28;20180;-94
2022/10/05 06:42:00;;;;;;;12.77;6.13;;;9.10;99.90;;;;;;5058776;28;20169;-84
2022/10/05 06:44:54;;;;;;;8.50;5.30;;;9.10;99.90;;;;;;5059197;28;20195;-85
2022/10/05 06:47:35;;;;;;;11.53;5.00;;;9.20;99.90;;;;;;5028563;28;20307;-85
2022/10/05 06:50:31;;;;;;;7.63;4.60;;;9.20;99.90;;;;;;5036078;28;20211;-84
2022/10/05 06:53:07;;;;;;;7.70;5.00;;;9.30;99.90;;;;;;5051735;28;20264;-87
2022/10/05 06:55:36;;;;;;;8.97;5.20;;;9.40;99.90;;;;;;5058552;28;20177;-84
2022/10/05 06:58:26;;;;;;;9.73;4.83;;;9.40;99.90;;;;;;5058862;28;20168;-85
2022/10/05 07:01:04;;;;;;;10.00;4.70;;;9.50;99.90;;;;;;5043367;28;20165;-85
2022/10/05 07:03:38;;;;;;;10.70;4.73;;;9.60;99.90;;;;;;5034553;28;20204;-85
2022/10/05 07:06:36;;;;;;;10.43;5.13;;;9.60;99.90;;;;;;5034619;28;20643;-85
2022/10/05 07:09:21;;;;;;;9.27;4.37;;;9.70;99.90;;;;;;5027587;28;20188;-85
2022/10/05 07:11:55;;;;;;;7.50;4.50;;;9.80;99.90;;;;;;5034164;28;20581;-86
2022/10/05 07:14:21;;;;;;;6.00;4.10;;;9.90;99.90;;;;;;5035726;28;20164;-85
2022/10/05 07:17:12;;;;;;;7.30;4.93;;;10.00;99.90;;;;;;5035327;28;20817;-86
2022/10/05 07:20:12;;;;;;;7.30;4.13;;;10.10;99.90;;;;;;5034372;28;20188;-85
2022/10/05 07:22:37;;;;;;;10.97;5.43;;;10.20;99.90;;;;;;5034446;28;20200;-85
2022/10/05 07:25:11;;;;;;;6.63;3.80;;;10.20;99.90;;;;;;5032757;28;20235;-86
2022/10/05 07:27:53;;;;;;;10.40;4.43;;;10.30;99.90;;;;;;5034200;28;20187;-85
2022/10/05 07:30:19;;;;;;;5.63;3.97;;;10.40;99.90;;;;;;5032721;28;20271;-86
2022/10/05 07:33:00;;;;;;;7.27;3.67;;;10.50;99.90;;;;;;5034571;28;20323;-85
2022/10/05 07:38:53;;;;;;;8.23;4.47;;;10.60;99.90;;;;;;5034782;28;20168;-86
2022/10/05 07:41:51;;;;;;;10.27;3.60;;;10.70;99.90;;;;;;5032985;28;20188;-87
2022/10/05 07:44:30;;;;;;;9.45;4.13;;;10.90;99.90;;;;;;5024324;28;20232;-87
2022/10/05 07:47:22;;;;;;;7.35;4.15;;;10.90;99.90;;;;;;5027054;28;20177;-86
2022/10/05 07:49:58;;;;;;;5.43;3.28;;;11.00;99.90;;;;;;5034629;28;20164;-86
2022/10/05 07:52:32;;;;;;;5.88;3.22;;;11.10;99.90;;;;;;5033891;28;20622;-87
2022/10/05 07:55:27;;;;;;;4.90;3.30;;;11.20;99.90;;;;;;5035338;28;20203;-86
2022/10/05 08:01:20;;;;;;;6.82;3.08;;;11.40;99.90;;;;;;5033462;28;20520;-87
2022/10/05 08:03:51;;;;;;;6.60;2.53;;;11.50;99.90;;;;;;5033859;28;20204;-86
2022/10/05 08:06:39;;;;;;;3.90;2.85;;;11.50;99.90;;;;;;5033877;28;20183;-86
2022/10/05 08:09:34;;;;;;;4.80;3.30;;;11.50;99.90;;;;;;5034003;28;20181;-86
2022/10/05 08:12:11;;;;;;;4.40;2.60;;;11.50;99.90;;;;;;5033611;28;20230;-86
2022/10/05 08:14:52;;;;;;;4.20;2.95;;;11.60;99.90;;;;;;5032585;28;20538;-87
2022/10/05 08:17:31;;;;;;;6.07;3.30;;;11.70;99.90;;;;;;5032589;28;20172;-86
2022/10/05 08:20:07;;;;;;;4.85;3.45;;;11.90;99.90;;;;;;5034004;28;20165;-86
2022/10/05 08:26:08;;;;;;;6.88;2.45;;;12.20;99.90;;;;;;5034531;28;20176;-86
2022/10/05 08:29:15;;;;;;;4.78;2.53;;;12.20;99.90;;;;;;5032032;28;20200;-86
2022/10/05 08:35:14;;;;;;;4.25;2.40;;;12.40;99.90;;;;;;5033802;28;20577;-86
2022/10/05 08:37:41;;;;;;;4.38;2.60;;;12.40;99.90;;;;;;5032189;28;20195;-86
2022/10/05 08:40:29;;;;;;;4.88;3.13;;;12.50;99.90;;;;;;5033843;28;20197;-87
2022/10/05 08:42:58;;;;;;;6.32;3.38;;;12.50;99.90;;;;;;5033349;28;20235;-87
2022/10/05 08:45:33;;;;;;;5.22;2.92;;;12.50;99.90;;;;;;5033765;28;20252;-87
2022/10/05 08:48:04;;;;;;;5.05;2.42;;;12.50;99.90;;;;;;5033321;28;20539;-87
2022/10/05 08:50:44;;;;;;;5.85;2.67;;;12.50;99.90;;;;;;5032391;28;20185;-87
2022/10/05 08:53:31;;;;;;;7.03;3.00;;;12.60;99.90;;;;;;5032020;28;20188;-87
2022/10/05 08:56:28;;;;;;;7.72;2.92;;;12.60;99.90;;;;;;5032139;28;20303;-87
2022/10/05 08:59:20;;;;;;;5.97;2.58;;;12.50;99.90;;;;;;5028420;28;20282;-87
2022/10/05 09:02:18;;;;;;;5.05;3.13;;;12.50;99.90;;;;;;5032336;28;20176;-86
2022/10/05 09:05:10;;;;;;;5.60;3.17;;;12.50;99.90;;;;;;5033028;28;20538;-88
2022/10/05 09:08:13;;;;;;;5.45;3.28;;;12.50;99.90;;;;;;5030877;28;20657;-87
2022/10/05 09:10:57;;;;;;;8.13;3.00;;;12.60;99.90;;;;;;5033894;28;20247;-87
2022/10/05 09:13:41;;;;;;;9.52;2.90;;;12.60;99.90;;;;;;5031510;28;20188;-86
2022/10/05 09:19:22;;;;;;;4.38;3.30;;;12.80;99.90;;;;;;5036794;28;20311;-86
2022/10/05 09:22:03;;;;;;;3.92;3.08;;;12.90;99.90;;;;;;5035017;28;20625;-86
2022/10/05 09:24:41;;;;;;;8.70;3.00;;;13.00;99.90;;;;;;5035598;28;20235;-87
2022/10/05 09:27:16;;;;;;;6.40;3.53;;;13.20;99.90;;;;;;5036252;28;20168;-92
2022/10/05 09:29:53;;;;;;;6.70;3.22;;;13.30;99.90;;;;;;5035924;28;20187;-90
2022/10/05 09:32:38;;;;;;;4.43;2.50;;;13.30;99.90;;;;;;5028933;28;20315;-91
2022/10/05 09:35:41;;;;;;;10.00;3.15;;;13.30;99.90;;;;;;5027960;28;20263;-92
2022/10/05 09:38:45;;;;;;;3.70;2.45;;;13.30;99.90;;;;;;5034784;28;20266;-90
2022/10/05 09:41:25;;;;;;;3.45;2.47;;;13.30;99.90;;;;;;5035049;28;20181;-91
2022/10/05 09:44:13;;;;;;;3.75;2.97;;;13.40;99.90;;;;;;5031711;28;20298;-91
2022/10/05 09:46:51;;;;;;;3.75;2.25;;;13.60;99.90;;;;;;5034810;28;20176;-92
2022/10/05 09:49:52;;;;;;;6.85;3.17;;;13.70;99.90;;;;;;5031625;28;20526;-92
2022/10/05 09:52:44;;;;;;;7.22;3.22;;;13.90;99.90;;;;;;5041103;28;20195;-92
2022/10/05 09:55:28;;;;;;;9.70;2.60;;;14.00;99.90;;;;;;5046380;28;20206;-93
2022/10/05 09:58:13;;;;;;;4.25;2.33;;;14.00;99.90;;;;;;5038596;28;20180;-93
2022/10/05 10:00:41;;;;;;;8.02;3.88;;;14.10;99.90;;;;;;5039254;28;20180;-92
2022/10/05 10:03:26;;;;;;;5.60;2.80;;;14.20;99.90;;;;;;5042368;28;20216;-93
2022/10/05 10:06:28;;;;;;;8.18;2.95;;;14.30;99.90;;;;;;5033940;28;20231;-92
2022/10/05 10:09:31;;;;;;;6.93;2.33;;;14.40;99.90;;;;;;5024692;28;20149;-92
2022/10/05 10:12:15;;;;;;;5.82;3.33;;;14.50;99.90;;;;;;5022670;28;20181;-90
2022/10/05 10:15:05;;;;;;;6.15;3.40;;;14.50;99.90;;;;;;5018207;28;20239;-91
2022/10/05 10:17:54;;;;;;;8.57;2.88;;;14.40;99.90;;;;;;5031103;28;20177;-92
2022/10/05 10:20:47;;;;;;;9.80;4.00;;;14.40;99.90;;;;;;5038586;28;20173;-93
2022/10/05 10:23:36;;;;;;;3.65;2.38;;;14.30;99.90;;;;;;5035656;28;20204;-94
2022/10/05 10:26:50;;;;;;;4.32;2.38;;;14.30;99.90;;;;;;5036396;28;20683;-90
2022/10/05 10:29:25;;;;;;;6.05;3.03;;;14.30;99.90;;;;;;5035759;28;20653;-90
2022/10/05 10:32:09;;;;;;;4.97;2.65;;;14.50;99.90;;;;;;5034315;28;20224;-93
2022/10/05 10:35:12;;;;;;;7.40;2.85;;;14.70;99.90;;;;;;5035788;28;20168;-93
2022/10/05 10:38:01;;;;;;;9.32;5.13;;;15.00;99.90;;;;;;5036155;28;20181;-93
2022/10/05 10:40:35;;;;;;;7.53;3.50;;;15.10;99.90;;;;;;5033602;28;20664;-93
2022/10/05 10:43:29;;;;;;;4.60;2.75;;;15.00;99.90;;;;;;5034491;28;20208;-93
2022/10/05 10:46:29;;;;;;;4.50;2.97;;;14.90;99.90;;;;;;5033838;28;20180;-91
2022/10/05 10:49:23;;;;;;;6.18;3.05;;;14.90;99.90;;;;;;5033909;28;20279;-92
2022/10/05 10:52:11;;;;;;;6.60;3.35;;;14.80;99.90;;;;;;5012284;28;20215;-90
2022/10/05 10:55:14;;;;;;;3.35;2.10;;;14.80;99.90;;;;;;5033554;28;20230;-93
2022/10/05 10:58:05;;;;;;;9.23;2.83;;;14.90;99.90;;;;;;5033545;28;20188;-94
2022/10/05 11:01:13;;;;;;;7.22;2.67;;;14.90;99.90;;;;;;5031770;28;20191;-93
2022/10/05 11:03:42;;;;;;;5.20;2.50;;;14.80;99.90;;;;;;5034419;28;20204;-94
2022/10/05 11:06:29;;;;;;;6.80;2.95;;;14.90;99.90;;;;;;5034317;28;20176;-92
2022/10/05 11:08:57;;;;;;;3.65;2.13;;;15.00;99.90;;;;;;5034743;28;20237;-93
2022/10/05 11:12:00;;;;;;;7.60;2.88;;;14.90;99.90;;;;;;5033790;28;20181;-94
2022/10/05 11:14:59;;;;;;;2.80;2.08;;;15.10;99.90;;;;;;5034243;28;20180;-90
2022/10/05 11:17:45;;;;;;;4.50;2.72;;;15.20;99.90;;;;;;5032547;28;20268;-90
2022/10/05 11:20:48;;;;;;;4.53;2.85;;;15.30;99.90;;;;;;5036276;28;20183;-95
2022/10/05 11:23:35;;;;;;;3.55;2.05;;;15.30;99.90;;;;;;5039926;28;20322;-96
2022/10/05 11:26:32;;;;;;;2.88;2.05;;;15.20;99.90;;;;;;5037162;28;20180;-96
2022/10/05 11:29:09;;;;;;;3.50;2.42;;;15.20;99.90;;;;;;5035897;28;20165;-96
2022/10/05 11:31:40;;;;;;;2.70;2.35;;;15.20;99.90;;;;;;5037637;28;20573;-95
2022/10/05 11:34:27;;;;;;;3.50;2.42;;;15.20;99.90;;;;;;5040206;28;20176;-95
2022/10/05 11:37:17;;;;;;;3.35;2.10;;;15.30;99.90;;;;;;5039263;28;20173;-96
2022/10/05 11:39:52;;;;;;;6.30;2.40;;;15.30;99.90;;;;;;5039596;28;20176;-95
2022/10/05 11:42:48;;;;;;;2.58;2.10;;;15.30;99.90;;;;;;5040943;28;20171;-96
2022/10/05 11:45:21;;;;;;;3.92;2.60;;;15.30;99.90;;;;;;5039614;28;20177;-96
2022/10/05 11:48:11;;;;;;;5.60;2.13;;;15.40;99.90;;;;;;5039732;28;20172;-91
2022/10/05 11:50:46;;;;;;;4.07;2.88;;;15.40;99.90;;;;;;5034659;28;20240;-92
2022/10/05 11:53:22;;;;;;;2.35;1.88;;;15.50;99.90;;;;;;5034226;28;20176;-93
2022/10/05 11:56:15;;;;;;;2.35;1.75;;;15.50;99.90;;;;;;5033178;28;20626;-93
2022/10/05 11:58:53;;;;;;;4.20;2.30;;;15.60;99.90;;;;;;5012534;28;20275;-91
2022/10/05 12:01:33;;;;;;;3.25;2.15;;;15.70;99.90;;;;;;5012718;28;20169;-94
2022/10/05 12:04:23;;;;;;;7.95;2.35;;;15.70;99.90;;;;;;5015599;28;20201;-92
2022/10/05 12:07:04;;;;;;;5.07;2.22;;;15.60;99.90;;;;;;5013747;28;20204;-92
2022/10/05 12:10:12;;;;;;;4.28;2.13;;;15.50;99.90;;;;;;5013900;28;20642;-91
2022/10/05 12:13:01;;;;;;;2.42;1.90;;;15.50;99.90;;;;;;5015687;28;20177;-92
2022/10/05 12:15:39;;;;;;;3.67;2.00;;;15.50;99.90;;;;;;5012737;28;20660;-91
2022/10/05 12:18:14;;;;;;;2.58;1.70;;;15.50;99.90;;;;;;5013213;28;20219;-92
2022/10/05 12:21:02;;;;;;;3.63;1.70;;;15.60;99.90;;;;;;5013794;28;20177;-91
2022/10/05 12:23:43;;;;;;;3.28;1.77;;;15.80;99.90;;;;;;5013896;28;20189;-88
2022/10/05 12:26:14;;;;;;;5.10;1.73;;;15.90;99.90;;;;;;5014002;28;20180;-87
2022/10/05 12:28:46;;;;;;;4.38;1.65;;;15.90;99.90;;;;;;5013022;28;20257;-87
2022/10/05 12:31:37;;;;;;;4.78;1.80;;;15.80;99.90;;;;;;5013360;28;20279;-87
2022/10/05 12:34:10;;;;;;;6.47;2.33;;;15.90;99.90;;;;;;5004961;28;20188;-87
2022/10/05 12:36:57;;;;;;;3.65;2.00;;;15.90;99.90;;;;;;5013105;28;20218;-87
2022/10/05 12:39:27;;;;;;;4.22;2.33;;;15.90;99.90;;;;;;5016045;28;20177;-88
2022/10/05 12:42:06;;;;;;;4.28;1.67;;;15.80;99.90;;;;;;5020166;28;20223;-87
2022/10/05 12:44:59;;;;;;;3.50;2.35;;;15.80;99.90;;;;;;5017193;28;20188;-87
2022/10/05 12:47:34;;;;;;;8.98;2.45;;;15.80;99.90;;;;;;5028920;28;20161;-87
2022/10/05 12:50:26;;;;;;;1.77;1.67;;;15.70;99.90;;;;;;5051149;28;20183;-88
2022/10/05 12:53:21;;;;;;;3.70;2.20;;;15.70;99.90;;;;;;5058911;28;20160;-85
2022/10/05 12:56:12;;;;;;;2.53;2.13;;;15.60;99.90;;;;;;5057291;28;20184;-86
2022/10/05 12:58:47;;;;;;;4.47;1.55;;;15.60;99.90;;;;;;5055173;28;20176;-87
2022/10/05 13:01:25;;;;;;;2.60;2.22;;;15.60;99.90;;;;;;5057037;28;20148;-86
2022/10/05 13:04:09;;;;;;;2.05;1.80;;;15.60;99.90;;;;;;5060962;28;20259;-88
2022/10/05 13:07:02;;;;;;;4.22;2.38;;;15.50;99.90;;;;;;5060819;28;20160;-91
2022/10/05 13:09:38;;;;;;;5.28;2.20;;;15.50;99.90;;;;;;5060253;28;20157;-85
2022/10/05 13:12:28;;;;;;;2.75;2.38;;;15.50;99.90;;;;;;5038429;28;20152;-85
2022/10/05 13:15:17;;;;;;;6.20;2.65;;;15.40;99.90;;;;;;5038405;28;20165;-86
2022/10/05 13:17:57;;;;;;;2.40;1.65;;;15.40;99.90;;;;;;5033000;28;20200;-86
2022/10/05 13:20:34;;;;;;;9.50;1.92;;;15.40;99.90;;;;;;5024829;28;20169;-88
2022/10/05 13:23:11;;;;;;;3.17;2.08;;;15.40;99.90;;;;;;5025824;28;20197;-86
2022/10/05 13:25:50;;;;;;;3.10;1.85;;;15.40;99.90;;;;;;5025964;28;20193;-86
2022/10/05 13:28:31;;;;;;;2.55;2.10;;;15.40;99.90;;;;;;5017370;28;20532;-86
2022/10/05 13:31:14;;;;;;;3.05;1.75;;;15.40;99.90;;;;;;5016721;28;20165;-87
2022/10/05 13:34:04;;;;;;;2.13;1.33;;;15.40;99.90;;;;;;5017424;28;20176;-86
2022/10/05 13:36:56;;;;;;;2.47;1.63;;;15.40;99.90;;;;;;5017578;28;20169;-86
2022/10/05 13:39:48;;;;;;;2.58;1.58;;;15.40;99.90;;;;;;5004375;28;20193;-85
2022/10/05 13:42:34;;;;;;;4.00;1.67;;;15.40;99.90;;;;;;5035623;28;20195;-87
2022/10/05 13:45:16;;;;;;;1.80;1.70;;;15.40;99.90;;;;;;5034669;28;20177;-87
2022/10/05 13:48:00;;;;;;;2.95;2.28;;;15.40;99.90;;;;;;5033593;28;20180;-88
2022/10/05 13:50:28;;;;;;;3.58;2.42;;;15.40;99.90;;;;;;5033703;28;20535;-86
2022/10/05 13:53:03;;;;;;;4.18;2.33;;;15.50;99.90;;;;;;5034666;28;20186;-86
2022/10/05 13:55:41;;;;;;;1.85;1.63;;;15.40;99.90;;;;;;5033279;28;20245;-87
2022/10/05 13:58:20;;;;;;;5.00;2.00;;;15.40;99.90;;;;;;5034708;28;20259;-87
2022/10/05 14:00:53;;;;;;;2.75;2.15;;;15.40;99.90;;;;;;5035354;28;20179;-83
2022/10/05 14:03:37;;;;;;;3.35;2.00;;;15.40;99.90;;;;;;5035327;28;20200;-87
2022/10/05 14:06:28;;;;;;;2.72;1.77;;;15.40;99.90;;;;;;5034570;28;20664;-87
2022/10/05 14:08:56;;;;;;;3.70;1.65;;;15.40;99.90;;;;;;5033490;28;20184;-88
2022/10/05 14:11:34;;;;;;;10.90;2.38;;;15.40;99.90;;;;;;5035139;28;20173;-87
2022/10/05 14:14:03;;;;;;;7.95;1.73;;;15.30;99.90;;;;;;5033324;28;20632;-88
2022/10/05 14:16:32;;;;;;;4.00;2.20;;;15.30;99.90;;;;;;5034984;28;20176;-86
2022/10/05 14:19:03;;;;;;;2.60;1.58;;;15.30;99.90;;;;;;5033045;28;20199;-86
2022/10/05 14:21:31;;;;;;;3.50;2.13;;;15.30;99.90;;;;;;5034846;28;20195;-86
2022/10/05 14:24:16;;;;;;;2.30;1.60;;;15.30;99.90;;;;;;5033120;28;20213;-86